Airfield :
LOGIN :

Register | Disclaimer

   EN    FR    IT 

 










Legend :    VFR   Marginal VFR   IFR   Intensive IFR   Very Intensive IFR
Visi :
Ceiling :
>= 8 km
>= 3000ft
5 to 8 km
1000 to 3000 ft
1500m to 5 km
500 to 1000 ft
800 to 1500m
200 to 500 ft
< 800m
< 200 ft
Symbols :   Thunderstorms  Fog  Heavy snow  Heavy precipitations  Wind > 20 kt
SIGMETs :     Misc.  Thunderstorms  Icing  Turbulence  Mountain Waves  Volcanic Ashes






- Airport Elevation : 249 ft


EGOS - RAF Shawbury

CURRENT METAR :
  • 121350Z 15003KT 5000 RA FEW004 BKN008 OVC030 06/06 Q0978 TEMPO 9999 FEW008 SCT030 RMK GRN TEMPO BLU

EXPIRED METARs :
  • 121341Z 15005KT 5000 RA FEW004 SCT006 BKN008 06/06 Q0978 TEMPO FEW006 SCT008 RMK YLO1 TEMPO GRN
  • 121320Z 15006KT 8000 RA FEW004 BKN006 OVC008 06/06 Q0979 TEMPO 7000 RA FEW006 BKN008 RMK YLO1 TEMPO GRN
  • 121250Z 13005KT 7000 -RA FEW004 BKN006 OVC008 06/05 Q0980 TEMPO 4000 RADZ RMK YLO1 TEMPO YLO1
  • 121220Z 14007KT 9999 7000N -RA BKN005 OVC008 06/05 Q0981 TEMPO 4000 RADZ RMK YLO1 TEMPO YLO1
  • 121150Z 13007KT 9999 7000N RA FEW004 BKN006 OVC008 05/05 Q0982 TEMPO 4000 RADZ YLO1 TEMPO YLO1
  • 121127Z 15008KT 7000 4500N RA FEW004 BKN006 OVC008 05/05 Q0983 TEMPO 7000 RA RMK YLO1 TEMPO YLO1
  • 121120Z 15009KT 5000 RA FEW004 BKN006 OVC008 05/05 Q0983 TEMPO 4000 RADZ RMK YLO1 TEMPO YLO1

TAF AMD TAF EGOS
Valid from the 12 at 12:00 until the 12 at 18:00 UTC


121230Z 1212/1218 16008KT 9999 BKN010
TEMPO 1212/1215 7000 RA
TEMPO 1212/1214 4000 RADZ SCT004 BKN010
BECMG 1213/1215 23010KT FEW012 SCT025
TEMPO 1215/1217 6000 SHRA SCT012



MET'MAP, your aeronautical weather chart ! - Copyright ORBIFLY December 2007 - Disclaimer

ORBIFLY MET'MAP TEAM :

Programming & Development : Alexandra Zaïnal
Concept & original design : Baudouin d'Aumeries
Assistance for programming : Marc-Olivier Méhu
Technical & hardware support : Manuel Goepfert

Contact : metmap@orbifly.com




SOURCES & CREDITS :

   NOAA